Terminal Aerodrome Forecast
Issued by NWS

Home | Current Version | Previous Version | Text Only | Print | Product List | Glossary On
Versions: 1 2 3 4 5 6 7 8 9 10 11 12 13 14 15 16 17 18 19 20 21 22 23 24
000
FTUS43 KMQT 212300
TAFSAW
TAF
KSAW 212321Z 2200/2224 15007KT P6SM SCT020 BKN040
     FM220300 14007KT 5SM BR OVC020
     FM220600 14003KT 1SM BR OVC005
     FM221400 14005KT P6SM OVC008
     FM221700 11006KT P6SM OVC025
     FM222000 10006KT P6SM SCT025 BKN035
      AMD LTD TO CLD VIS AND WIND 2202/2210=

USA.gov is the U.S. government's official web portal to all federal, state and local government web resources and services.